sensor_id;sensor_type;location;lat;lon;timestamp;temperature;humidity
530;DHT22;251;48.704;9.210;2023-07-29T00:01:19;16.40;99.90
530;DHT22;251;48.704;9.210;2023-07-29T00:03:46;16.60;99.90
530;DHT22;251;48.704;9.210;2023-07-29T00:06:13;16.30;99.90
530;DHT22;251;48.704;9.210;2023-07-29T00:08:39;16.60;99.90
530;DHT22;251;48.704;9.210;2023-07-29T00:11:06;16.80;99.90
530;DHT22;251;48.704;9.210;2023-07-29T00:13:33;16.70;99.90
530;DHT22;251;48.704;9.210;2023-07-29T00:16:00;16.50;99.90
530;DHT22;251;48.704;9.210;2023-07-29T00:18:28;16.40;99.90
530;DHT22;251;48.704;9.210;2023-07-29T00:20:55;16.50;99.90
530;DHT22;251;48.704;9.210;2023-07-29T00:23:23;16.50;99.90
530;DHT22;251;48.704;9.210;2023-07-29T00:25:49;16.50;99.90
530;DHT22;251;48.704;9.210;2023-07-29T00:28:16;16.60;99.90
530;DHT22;251;48.704;9.210;2023-07-29T00:30:44;16.60;99.90
530;DHT22;251;48.704;9.210;2023-07-29T00:33:11;16.60;99.90
530;DHT22;251;48.704;9.210;2023-07-29T00:35:39;16.40;99.90
530;DHT22;251;48.704;9.210;2023-07-29T00:38:06;16.20;99.90
530;DHT22;251;48.704;9.210;2023-07-29T00:40:35;16.60;99.90
530;DHT22;251;48.704;9.210;2023-07-29T00:43:02;16.70;99.90
530;DHT22;251;48.704;9.210;2023-07-29T00:45:29;16.70;99.90
530;DHT22;251;48.704;9.210;2023-07-29T00:47:57;16.40;99.90
530;DHT22;251;48.704;9.210;2023-07-29T00:50:26;16.40;99.90
530;DHT22;251;48.704;9.210;2023-07-29T00:52:55;16.50;99.90
530;DHT22;251;48.704;9.210;2023-07-29T00:55:23;16.60;99.90
530;DHT22;251;48.704;9.210;2023-07-29T00:57:50;16.60;99.90
530;DHT22;251;48.704;9.210;2023-07-29T01:00:20;16.60;99.90
530;DHT22;251;48.704;9.210;2023-07-29T01:02:47;16.40;99.90
530;DHT22;251;48.704;9.210;2023-07-29T01:05:16;16.60;99.90
530;DHT22;251;48.704;9.210;2023-07-29T01:07:48;16.20;99.90
530;DHT22;251;48.704;9.210;2023-07-29T01:10:25;16.50;99.90
530;DHT22;251;48.704;9.210;2023-07-29T01:12:59;16.50;99.90
530;DHT22;251;48.704;9.210;2023-07-29T01:15:31;16.50;99.90
530;DHT22;251;48.704;9.210;2023-07-29T01:18:04;16.80;99.90
530;DHT22;251;48.704;9.210;2023-07-29T01:20:33;16.50;99.90
530;DHT22;251;48.704;9.210;2023-07-29T01:23:00;16.50;99.90
530;DHT22;251;48.704;9.210;2023-07-29T01:25:28;16.40;99.90
530;DHT22;251;48.704;9.210;2023-07-29T01:27:55;16.50;99.90
530;DHT22;251;48.704;9.210;2023-07-29T01:30:33;16.70;99.90
530;DHT22;251;48.704;9.210;2023-07-29T01:33:09;16.50;99.90
530;DHT22;251;48.704;9.210;2023-07-29T01:35:42;16.60;99.90
530;DHT22;251;48.704;9.210;2023-07-29T01:38:15;16.50;99.90
530;DHT22;251;48.704;9.210;2023-07-29T01:40:45;16.50;99.90
530;DHT22;251;48.704;9.210;2023-07-29T01:43:12;16.40;99.90
530;DHT22;251;48.704;9.210;2023-07-29T01:45:40;16.40;99.90
530;DHT22;251;48.704;9.210;2023-07-29T01:48:07;16.70;99.90
530;DHT22;251;48.704;9.210;2023-07-29T01:50:34;16.60;99.90
530;DHT22;251;48.704;9.210;2023-07-29T01:53:01;16.70;99.90
530;DHT22;251;48.704;9.210;2023-07-29T01:55:29;16.50;99.90
530;DHT22;251;48.704;9.210;2023-07-29T01:57:57;16.60;99.90
530;DHT22;251;48.704;9.210;2023-07-29T02:00:25;16.70;99.90
530;DHT22;251;48.704;9.210;2023-07-29T02:02:52;16.60;99.90
530;DHT22;251;48.704;9.210;2023-07-29T02:05:18;16.50;99.90
530;DHT22;251;48.704;9.210;2023-07-29T02:07:45;16.50;99.90
530;DHT22;251;48.704;9.210;2023-07-29T02:10:13;16.70;99.90
530;DHT22;251;48.704;9.210;2023-07-29T02:12:40;16.90;99.90
530;DHT22;251;48.704;9.210;2023-07-29T02:15:09;16.60;99.90
530;DHT22;251;48.704;9.210;2023-07-29T02:17:36;16.60;99.90
530;DHT22;251;48.704;9.210;2023-07-29T02:20:04;16.50;99.90
530;DHT22;251;48.704;9.210;2023-07-29T02:22:31;16.60;99.90
530;DHT22;251;48.704;9.210;2023-07-29T02:24:58;16.60;99.90
530;DHT22;251;48.704;9.210;2023-07-29T02:27:25;16.40;99.90
530;DHT22;251;48.704;9.210;2023-07-29T02:29:52;16.40;99.90
530;DHT22;251;48.704;9.210;2023-07-29T02:32:21;16.50;99.90
530;DHT22;251;48.704;9.210;2023-07-29T02:34:49;16.60;99.90
530;DHT22;251;48.704;9.210;2023-07-29T02:37:15;16.60;99.90
530;DHT22;251;48.704;9.210;2023-07-29T02:39:43;16.80;99.90
530;DHT22;251;48.704;9.210;2023-07-29T02:42:10;16.50;99.90
530;DHT22;251;48.704;9.210;2023-07-29T02:44:36;16.50;99.90
530;DHT22;251;48.704;9.210;2023-07-29T02:47:03;16.80;99.90
530;DHT22;251;48.704;9.210;2023-07-29T02:49:31;16.60;99.90
530;DHT22;251;48.704;9.210;2023-07-29T02:51:58;16.50;99.90
530;DHT22;251;48.704;9.210;2023-07-29T02:54:25;16.50;99.90
530;DHT22;251;48.704;9.210;2023-07-29T02:56:52;16.60;99.90
530;DHT22;251;48.704;9.210;2023-07-29T02:59:20;16.70;99.90
530;DHT22;251;48.704;9.210;2023-07-29T03:01:46;16.70;99.90
530;DHT22;251;48.704;9.210;2023-07-29T03:04:13;16.50;99.90
530;DHT22;251;48.704;9.210;2023-07-29T03:06:42;16.50;99.90
530;DHT22;251;48.704;9.210;2023-07-29T03:09:09;16.60;99.90
530;DHT22;251;48.704;9.210;2023-07-29T03:11:36;16.60;99.90
530;DHT22;251;48.704;9.210;2023-07-29T03:14:03;16.60;99.90
530;DHT22;251;48.704;9.210;2023-07-29T03:16:30;16.50;99.90
530;DHT22;251;48.704;9.210;2023-07-29T03:18:58;16.70;99.90
530;DHT22;251;48.704;9.210;2023-07-29T03:21:26;16.30;99.90
530;DHT22;251;48.704;9.210;2023-07-29T03:23:54;16.40;99.90
530;DHT22;251;48.704;9.210;2023-07-29T03:26:21;16.20;99.90
530;DHT22;251;48.704;9.210;2023-07-29T03:28:47;16.20;99.90
530;DHT22;251;48.704;9.210;2023-07-29T03:31:14;16.30;99.90
530;DHT22;251;48.704;9.210;2023-07-29T03:33:41;16.40;99.90
530;DHT22;251;48.704;9.210;2023-07-29T03:36:08;16.40;99.90
530;DHT22;251;48.704;9.210;2023-07-29T03:38:35;16.20;99.90
530;DHT22;251;48.704;9.210;2023-07-29T03:41:07;16.40;99.90
530;DHT22;251;48.704;9.210;2023-07-29T03:43:34;16.60;99.90
530;DHT22;251;48.704;9.210;2023-07-29T03:46:02;16.50;99.90
530;DHT22;251;48.704;9.210;2023-07-29T03:48:29;16.50;99.90
530;DHT22;251;48.704;9.210;2023-07-29T03:50:56;16.60;99.90
530;DHT22;251;48.704;9.210;2023-07-29T03:53:23;16.50;99.90
530;DHT22;251;48.704;9.210;2023-07-29T03:55:51;16.50;99.90
530;DHT22;251;48.704;9.210;2023-07-29T03:58:19;16.70;99.90
530;DHT22;251;48.704;9.210;2023-07-29T04:00:46;16.40;99.90
530;DHT22;251;48.704;9.210;2023-07-29T04:03:14;16.70;99.90
530;DHT22;251;48.704;9.210;2023-07-29T04:05:41;16.90;99.90
530;DHT22;251;48.704;9.210;2023-07-29T04:08:08;16.60;99.90
530;DHT22;251;48.704;9.210;2023-07-29T04:10:35;16.60;99.90
530;DHT22;251;48.704;9.210;2023-07-29T04:13:03;16.80;99.90
530;DHT22;251;48.704;9.210;2023-07-29T04:15:32;16.50;99.90
530;DHT22;251;48.704;9.210;2023-07-29T04:17:58;16.50;99.90
530;DHT22;251;48.704;9.210;2023-07-29T04:20:25;16.70;99.90
530;DHT22;251;48.704;9.210;2023-07-29T04:22:52;16.80;99.90
530;DHT22;251;48.704;9.210;2023-07-29T04:25:19;16.50;99.90
530;DHT22;251;48.704;9.210;2023-07-29T04:27:45;17.00;99.90
530;DHT22;251;48.704;9.210;2023-07-29T04:30:12;17.00;99.90
530;DHT22;251;48.704;9.210;2023-07-29T04:32:40;16.70;99.90
530;DHT22;251;48.704;9.210;2023-07-29T04:35:10;16.50;99.90
530;DHT22;251;48.704;9.210;2023-07-29T04:37:37;16.80;99.90
530;DHT22;251;48.704;9.210;2023-07-29T04:40:04;16.90;99.90
530;DHT22;251;48.704;9.210;2023-07-29T04:42:31;16.90;99.90
530;DHT22;251;48.704;9.210;2023-07-29T04:44:58;17.00;99.90
530;DHT22;251;48.704;9.210;2023-07-29T04:47:25;17.00;99.90
530;DHT22;251;48.704;9.210;2023-07-29T04:49:53;17.00;99.90
530;DHT22;251;48.704;9.210;2023-07-29T04:52:20;16.50;99.90
530;DHT22;251;48.704;9.210;2023-07-29T04:54:47;16.80;99.90
530;DHT22;251;48.704;9.210;2023-07-29T04:57:14;16.90;99.90
530;DHT22;251;48.704;9.210;2023-07-29T04:59:41;16.90;99.90
530;DHT22;251;48.704;9.210;2023-07-29T05:02:08;16.50;99.90
530;DHT22;251;48.704;9.210;2023-07-29T05:04:35;17.00;99.90
530;DHT22;251;48.704;9.210;2023-07-29T05:07:04;17.00;99.90
530;DHT22;251;48.704;9.210;2023-07-29T05:09:31;17.10;99.90
530;DHT22;251;48.704;9.210;2023-07-29T05:11:58;16.90;99.90
530;DHT22;251;48.704;9.210;2023-07-29T05:14:26;16.60;99.90
530;DHT22;251;48.704;9.210;2023-07-29T05:16:54;17.00;99.90
530;DHT22;251;48.704;9.210;2023-07-29T05:19:20;17.00;99.90
530;DHT22;251;48.704;9.210;2023-07-29T05:21:48;16.90;99.90
530;DHT22;251;48.704;9.210;2023-07-29T05:24:16;16.60;99.90
530;DHT22;251;48.704;9.210;2023-07-29T05:26:44;17.10;99.90
530;DHT22;251;48.704;9.210;2023-07-29T05:29:11;17.10;99.90
530;DHT22;251;48.704;9.210;2023-07-29T05:31:38;17.00;99.90
530;DHT22;251;48.704;9.210;2023-07-29T05:34:06;17.00;99.90
530;DHT22;251;48.704;9.210;2023-07-29T05:36:34;17.10;99.90
530;DHT22;251;48.704;9.210;2023-07-29T05:39:00;17.10;99.90
530;DHT22;251;48.704;9.210;2023-07-29T05:41:29;17.20;99.90
530;DHT22;251;48.704;9.210;2023-07-29T05:43:56;17.10;99.90
530;DHT22;251;48.704;9.210;2023-07-29T05:46:23;17.40;99.90
530;DHT22;251;48.704;9.210;2023-07-29T05:48:50;17.70;99.90
530;DHT22;251;48.704;9.210;2023-07-29T05:51:17;17.50;99.90
530;DHT22;251;48.704;9.210;2023-07-29T05:53:44;17.80;99.90
530;DHT22;251;48.704;9.210;2023-07-29T05:56:11;17.90;99.90
530;DHT22;251;48.704;9.210;2023-07-29T05:58:39;17.50;99.90
530;DHT22;251;48.704;9.210;2023-07-29T06:01:06;17.80;99.90
530;DHT22;251;48.704;9.210;2023-07-29T06:03:33;17.70;99.90
530;DHT22;251;48.704;9.210;2023-07-29T06:06:00;17.90;99.90
530;DHT22;251;48.704;9.210;2023-07-29T06:08:27;18.30;99.90
530;DHT22;251;48.704;9.210;2023-07-29T06:10:55;18.20;99.90
530;DHT22;251;48.704;9.210;2023-07-29T06:13:22;18.30;99.90
530;DHT22;251;48.704;9.210;2023-07-29T06:15:50;18.20;99.90
530;DHT22;251;48.704;9.210;2023-07-29T06:18:17;18.50;99.90
530;DHT22;251;48.704;9.210;2023-07-29T06:20:44;18.70;99.90
530;DHT22;251;48.704;9.210;2023-07-29T06:23:11;18.50;99.90
530;DHT22;251;48.704;9.210;2023-07-29T06:25:37;18.90;99.90
530;DHT22;251;48.704;9.210;2023-07-29T06:28:04;18.70;99.90
530;DHT22;251;48.704;9.210;2023-07-29T06:30:31;18.70;99.90
530;DHT22;251;48.704;9.210;2023-07-29T06:32:59;18.90;99.90
530;DHT22;251;48.704;9.210;2023-07-29T06:35:26;18.90;99.90
530;DHT22;251;48.704;9.210;2023-07-29T06:37:53;19.10;99.90
530;DHT22;251;48.704;9.210;2023-07-29T06:40:19;19.10;99.90
530;DHT22;251;48.704;9.210;2023-07-29T06:42:46;19.10;99.90
530;DHT22;251;48.704;9.210;2023-07-29T06:45:13;19.20;99.90
530;DHT22;251;48.704;9.210;2023-07-29T06:47:41;19.10;99.90
530;DHT22;251;48.704;9.210;2023-07-29T06:50:09;19.00;99.90
530;DHT22;251;48.704;9.210;2023-07-29T06:52:36;19.00;99.90
530;DHT22;251;48.704;9.210;2023-07-29T06:55:04;18.90;99.90
530;DHT22;251;48.704;9.210;2023-07-29T06:57:31;18.90;99.90
530;DHT22;251;48.704;9.210;2023-07-29T06:59:58;18.90;99.90
530;DHT22;251;48.704;9.210;2023-07-29T07:02:24;18.50;99.90
530;DHT22;251;48.704;9.210;2023-07-29T07:04:51;18.70;99.90
530;DHT22;251;48.704;9.210;2023-07-29T07:07:19;18.40;99.90
530;DHT22;251;48.704;9.210;2023-07-29T07:09:46;18.50;99.90
530;DHT22;251;48.704;9.210;2023-07-29T07:12:13;18.20;99.90
530;DHT22;251;48.704;9.210;2023-07-29T07:14:40;18.20;99.90
530;DHT22;251;48.704;9.210;2023-07-29T07:17:06;18.20;99.90
530;DHT22;251;48.704;9.210;2023-07-29T07:19:33;18.20;99.90
530;DHT22;251;48.704;9.210;2023-07-29T07:22:00;18.10;99.90
530;DHT22;251;48.704;9.210;2023-07-29T07:24:28;18.00;99.90
530;DHT22;251;48.704;9.210;2023-07-29T07:26:55;17.70;99.90
530;DHT22;251;48.704;9.210;2023-07-29T07:29:22;18.10;99.90
530;DHT22;251;48.704;9.210;2023-07-29T07:31:51;18.10;99.90
530;DHT22;251;48.704;9.210;2023-07-29T07:34:19;18.20;99.90
530;DHT22;251;48.704;9.210;2023-07-29T07:36:46;18.00;99.90
530;DHT22;251;48.704;9.210;2023-07-29T07:39:13;18.00;99.90
530;DHT22;251;48.704;9.210;2023-07-29T07:41:42;18.30;99.90
530;DHT22;251;48.704;9.210;2023-07-29T07:44:08;18.10;99.90
530;DHT22;251;48.704;9.210;2023-07-29T07:46:36;18.10;99.90
530;DHT22;251;48.704;9.210;2023-07-29T07:49:03;18.20;99.90
530;DHT22;251;48.704;9.210;2023-07-29T07:51:30;18.10;99.90
530;DHT22;251;48.704;9.210;2023-07-29T07:53:58;18.10;99.90
530;DHT22;251;48.704;9.210;2023-07-29T07:56:25;18.30;99.90
530;DHT22;251;48.704;9.210;2023-07-29T07:58:53;18.40;99.90
530;DHT22;251;48.704;9.210;2023-07-29T08:01:20;18.80;99.90
530;DHT22;251;48.704;9.210;2023-07-29T08:03:46;18.70;99.90
530;DHT22;251;48.704;9.210;2023-07-29T08:06:13;18.70;99.90
530;DHT22;251;48.704;9.210;2023-07-29T08:08:40;18.70;99.90
530;DHT22;251;48.704;9.210;2023-07-29T08:11:07;19.10;99.90
530;DHT22;251;48.704;9.210;2023-07-29T08:13:33;19.00;99.90
530;DHT22;251;48.704;9.210;2023-07-29T08:16:02;18.90;99.90
530;DHT22;251;48.704;9.210;2023-07-29T08:18:29;19.20;99.90
530;DHT22;251;48.704;9.210;2023-07-29T08:20:57;19.20;99.90
530;DHT22;251;48.704;9.210;2023-07-29T08:23:24;19.20;99.90
530;DHT22;251;48.704;9.210;2023-07-29T08:25:53;19.50;99.90
530;DHT22;251;48.704;9.210;2023-07-29T08:28:21;19.80;99.90
530;DHT22;251;48.704;9.210;2023-07-29T08:30:48;19.80;99.90
530;DHT22;251;48.704;9.210;2023-07-29T08:33:16;19.70;99.90
530;DHT22;251;48.704;9.210;2023-07-29T08:35:43;19.90;99.90
530;DHT22;251;48.704;9.210;2023-07-29T08:38:10;19.90;99.90
530;DHT22;251;48.704;9.210;2023-07-29T08:40:42;20.20;99.90
530;DHT22;251;48.704;9.210;2023-07-29T08:43:09;20.20;99.90
530;DHT22;251;48.704;9.210;2023-07-29T08:45:38;20.30;99.90
530;DHT22;251;48.704;9.210;2023-07-29T08:48:08;20.40;94.00
530;DHT22;251;48.704;9.210;2023-07-29T08:50:37;20.40;97.40
530;DHT22;251;48.704;9.210;2023-07-29T08:53:04;20.50;99.80
530;DHT22;251;48.704;9.210;2023-07-29T08:55:32;20.40;98.00
530;DHT22;251;48.704;9.210;2023-07-29T08:57:59;20.50;95.90
530;DHT22;251;48.704;9.210;2023-07-29T09:00:27;20.50;95.70
530;DHT22;251;48.704;9.210;2023-07-29T09:02:54;20.60;98.00
530;DHT22;251;48.704;9.210;2023-07-29T09:05:21;20.60;91.50
530;DHT22;251;48.704;9.210;2023-07-29T09:07:51;20.60;94.00
530;DHT22;251;48.704;9.210;2023-07-29T09:10:21;20.70;94.90
530;DHT22;251;48.704;9.210;2023-07-29T09:12:48;20.90;99.60
530;DHT22;251;48.704;9.210;2023-07-29T09:15:27;21.00;95.90
530;DHT22;251;48.704;9.210;2023-07-29T09:17:55;21.10;89.60
530;DHT22;251;48.704;9.210;2023-07-29T09:20:25;21.20;89.00
530;DHT22;251;48.704;9.210;2023-07-29T09:22:55;21.20;88.80
530;DHT22;251;48.704;9.210;2023-07-29T09:25:25;21.40;87.00
530;DHT22;251;48.704;9.210;2023-07-29T09:27:52;21.50;87.90
530;DHT22;251;48.704;9.210;2023-07-29T09:30:19;21.60;84.40
530;DHT22;251;48.704;9.210;2023-07-29T09:32:46;21.70;84.60
530;DHT22;251;48.704;9.210;2023-07-29T09:35:13;21.80;77.70
530;DHT22;251;48.704;9.210;2023-07-29T09:37:40;21.90;78.80
530;DHT22;251;48.704;9.210;2023-07-29T09:40:14;22.00;75.70
530;DHT22;251;48.704;9.210;2023-07-29T09:42:47;22.00;67.70
530;DHT22;251;48.704;9.210;2023-07-29T09:45:20;22.00;64.00
530;DHT22;251;48.704;9.210;2023-07-29T09:47:47;22.10;68.30
530;DHT22;251;48.704;9.210;2023-07-29T09:50:14;22.10;66.40
530;DHT22;251;48.704;9.210;2023-07-29T09:52:42;22.20;64.00
530;DHT22;251;48.704;9.210;2023-07-29T09:55:12;22.30;58.40
530;DHT22;251;48.704;9.210;2023-07-29T09:57:39;22.40;61.00
530;DHT22;251;48.704;9.210;2023-07-29T10:00:07;22.30;62.70
530;DHT22;251;48.704;9.210;2023-07-29T10:02:37;22.40;54.80
530;DHT22;251;48.704;9.210;2023-07-29T10:05:06;22.30;57.90
530;DHT22;251;48.704;9.210;2023-07-29T10:07:33;22.30;56.10
530;DHT22;251;48.704;9.210;2023-07-29T10:10:02;22.40;59.40
530;DHT22;251;48.704;9.210;2023-07-29T10:12:31;22.60;61.70
530;DHT22;251;48.704;9.210;2023-07-29T10:14:59;22.80;60.50
530;DHT22;251;48.704;9.210;2023-07-29T10:17:27;23.00;55.40
530;DHT22;251;48.704;9.210;2023-07-29T10:19:56;23.10;51.50
530;DHT22;251;48.704;9.210;2023-07-29T10:22:25;23.00;47.60
530;DHT22;251;48.704;9.210;2023-07-29T10:24:55;23.10;47.90
530;DHT22;251;48.704;9.210;2023-07-29T10:27:25;23.30;50.70
530;DHT22;251;48.704;9.210;2023-07-29T10:29:55;23.40;48.50
530;DHT22;251;48.704;9.210;2023-07-29T10:32:25;23.50;45.80
530;DHT22;251;48.704;9.210;2023-07-29T10:34:52;23.60;38.80
530;DHT22;251;48.704;9.210;2023-07-29T10:37:19;23.60;36.40
530;DHT22;251;48.704;9.210;2023-07-29T10:39:53;23.70;33.40
530;DHT22;251;48.704;9.210;2023-07-29T10:42:20;23.80;32.10
530;DHT22;251;48.704;9.210;2023-07-29T10:44:48;24.00;33.00
530;DHT22;251;48.704;9.210;2023-07-29T10:47:21;24.20;28.10
530;DHT22;251;48.704;9.210;2023-07-29T10:49:50;24.40;31.50
530;DHT22;251;48.704;9.210;2023-07-29T10:52:37;24.40;28.40
530;DHT22;251;48.704;9.210;2023-07-29T10:55:23;24.40;26.90
530;DHT22;251;48.704;9.210;2023-07-29T10:57:50;24.40;27.20
530;DHT22;251;48.704;9.210;2023-07-29T11:00:19;24.60;26.70
530;DHT22;251;48.704;9.210;2023-07-29T11:02:58;24.80;25.00
530;DHT22;251;48.704;9.210;2023-07-29T11:05:25;24.90;24.40
530;DHT22;251;48.704;9.210;2023-07-29T11:07:52;25.20;23.90
530;DHT22;251;48.704;9.210;2023-07-29T11:10:21;25.30;20.20
530;DHT22;251;48.704;9.210;2023-07-29T11:12:48;25.30;20.60
530;DHT22;251;48.704;9.210;2023-07-29T11:15:21;25.50;21.60
530;DHT22;251;48.704;9.210;2023-07-29T11:17:52;25.40;19.50
530;DHT22;251;48.704;9.210;2023-07-29T11:20:20;25.40;20.40
530;DHT22;251;48.704;9.210;2023-07-29T11:22:48;25.40;20.70
530;DHT22;251;48.704;9.210;2023-07-29T11:25:16;25.40;19.40
530;DHT22;251;48.704;9.210;2023-07-29T11:27:44;25.10;18.30
530;DHT22;251;48.704;9.210;2023-07-29T11:30:12;25.20;20.50
530;DHT22;251;48.704;9.210;2023-07-29T11:32:41;25.20;19.20
530;DHT22;251;48.704;9.210;2023-07-29T11:35:11;25.10;19.50
530;DHT22;251;48.704;9.210;2023-07-29T11:37:39;25.10;18.20
530;DHT22;251;48.704;9.210;2023-07-29T11:40:07;25.00;19.20
530;DHT22;251;48.704;9.210;2023-07-29T11:42:38;25.00;20.40
530;DHT22;251;48.704;9.210;2023-07-29T11:45:06;25.10;18.70
530;DHT22;251;48.704;9.210;2023-07-29T11:47:33;25.20;19.00
530;DHT22;251;48.704;9.210;2023-07-29T11:50:03;25.30;18.30
530;DHT22;251;48.704;9.210;2023-07-29T11:52:33;25.30;17.50
530;DHT22;251;48.704;9.210;2023-07-29T11:55:00;25.40;16.30
530;DHT22;251;48.704;9.210;2023-07-29T11:57:28;25.50;17.80
530;DHT22;251;48.704;9.210;2023-07-29T11:59:55;25.60;15.50
530;DHT22;251;48.704;9.210;2023-07-29T12:02:23;25.60;15.70
530;DHT22;251;48.704;9.210;2023-07-29T12:04:51;25.60;15.40
530;DHT22;251;48.704;9.210;2023-07-29T12:07:19;25.70;16.00
530;DHT22;251;48.704;9.210;2023-07-29T12:09:47;25.70;16.20
530;DHT22;251;48.704;9.210;2023-07-29T12:12:15;25.70;15.60
530;DHT22;251;48.704;9.210;2023-07-29T12:14:44;25.60;15.10
530;DHT22;251;48.704;9.210;2023-07-29T12:17:13;25.70;15.70
530;DHT22;251;48.704;9.210;2023-07-29T12:19:40;25.70;14.50
530;DHT22;251;48.704;9.210;2023-07-29T12:22:08;25.80;15.10
530;DHT22;251;48.704;9.210;2023-07-29T12:24:37;25.90;15.30
530;DHT22;251;48.704;9.210;2023-07-29T12:27:09;25.90;15.40
530;DHT22;251;48.704;9.210;2023-07-29T12:29:40;26.20;15.40
530;DHT22;251;48.704;9.210;2023-07-29T12:32:07;26.20;13.90
530;DHT22;251;48.704;9.210;2023-07-29T12:34:36;26.30;14.30
530;DHT22;251;48.704;9.210;2023-07-29T12:37:04;26.30;13.80
530;DHT22;251;48.704;9.210;2023-07-29T12:39:33;26.40;13.70
530;DHT22;251;48.704;9.210;2023-07-29T12:42:00;26.50;14.30
530;DHT22;251;48.704;9.210;2023-07-29T12:44:30;26.60;13.20
530;DHT22;251;48.704;9.210;2023-07-29T12:46:57;26.90;13.80
530;DHT22;251;48.704;9.210;2023-07-29T12:49:24;27.00;13.40
530;DHT22;251;48.704;9.210;2023-07-29T12:51:51;27.10;14.30
530;DHT22;251;48.704;9.210;2023-07-29T12:54:18;27.00;13.20
530;DHT22;251;48.704;9.210;2023-07-29T12:56:45;26.90;13.80
530;DHT22;251;48.704;9.210;2023-07-29T12:59:12;26.70;13.70
530;DHT22;251;48.704;9.210;2023-07-29T13:01:40;26.50;14.10
530;DHT22;251;48.704;9.210;2023-07-29T13:04:07;26.50;14.80
530;DHT22;251;48.704;9.210;2023-07-29T13:06:34;26.60;15.50
530;DHT22;251;48.704;9.210;2023-07-29T13:09:00;26.50;14.70
530;DHT22;251;48.704;9.210;2023-07-29T13:11:28;26.60;14.10
530;DHT22;251;48.704;9.210;2023-07-29T13:13:57;26.70;15.10
530;DHT22;251;48.704;9.210;2023-07-29T13:16:26;26.70;14.90
530;DHT22;251;48.704;9.210;2023-07-29T13:18:54;26.60;14.00
530;DHT22;251;48.704;9.210;2023-07-29T13:21:21;26.80;15.30
530;DHT22;251;48.704;9.210;2023-07-29T13:23:48;26.80;13.80
530;DHT22;251;48.704;9.210;2023-07-29T13:26:15;26.80;13.40
530;DHT22;251;48.704;9.210;2023-07-29T13:28:41;27.00;14.20
530;DHT22;251;48.704;9.210;2023-07-29T13:31:08;26.90;12.70
530;DHT22;251;48.704;9.210;2023-07-29T13:33:36;26.80;12.20
530;DHT22;251;48.704;9.210;2023-07-29T13:36:05;26.60;13.60
530;DHT22;251;48.704;9.210;2023-07-29T13:38:33;26.60;14.40
530;DHT22;251;48.704;9.210;2023-07-29T13:41:00;26.60;14.30
530;DHT22;251;48.704;9.210;2023-07-29T13:43:27;26.50;14.40
530;DHT22;251;48.704;9.210;2023-07-29T13:45:54;26.40;13.20
530;DHT22;251;48.704;9.210;2023-07-29T13:48:21;26.40;13.30
530;DHT22;251;48.704;9.210;2023-07-29T13:50:48;26.40;13.20
530;DHT22;251;48.704;9.210;2023-07-29T13:53:16;26.40;13.20
530;DHT22;251;48.704;9.210;2023-07-29T13:55:42;26.40;13.00
530;DHT22;251;48.704;9.210;2023-07-29T13:58:09;26.40;13.40
530;DHT22;251;48.704;9.210;2023-07-29T14:00:36;26.40;13.80
530;DHT22;251;48.704;9.210;2023-07-29T14:03:03;26.40;14.00
530;DHT22;251;48.704;9.210;2023-07-29T14:05:29;26.40;13.00
530;DHT22;251;48.704;9.210;2023-07-29T14:07:56;26.40;14.00
530;DHT22;251;48.704;9.210;2023-07-29T14:10:24;26.30;13.60
530;DHT22;251;48.704;9.210;2023-07-29T14:12:51;26.30;13.80
530;DHT22;251;48.704;9.210;2023-07-29T14:15:18;26.30;15.00
530;DHT22;251;48.704;9.210;2023-07-29T14:17:45;26.20;14.50
530;DHT22;251;48.704;9.210;2023-07-29T14:20:13;26.10;15.30
530;DHT22;251;48.704;9.210;2023-07-29T14:22:40;26.00;14.20
530;DHT22;251;48.704;9.210;2023-07-29T14:25:07;26.00;14.20
530;DHT22;251;48.704;9.210;2023-07-29T14:27:36;26.00;15.30
530;DHT22;251;48.704;9.210;2023-07-29T14:30:03;26.00;15.10
530;DHT22;251;48.704;9.210;2023-07-29T14:32:30;26.10;14.00
530;DHT22;251;48.704;9.210;2023-07-29T14:34:57;26.30;14.30
530;DHT22;251;48.704;9.210;2023-07-29T14:37:24;27.00;15.30
530;DHT22;251;48.704;9.210;2023-07-29T14:39:50;27.30;12.10
530;DHT22;251;48.704;9.210;2023-07-29T14:42:19;27.30;11.80
530;DHT22;251;48.704;9.210;2023-07-29T14:44:47;27.50;14.60
530;DHT22;251;48.704;9.210;2023-07-29T14:47:14;27.60;12.40
530;DHT22;251;48.704;9.210;2023-07-29T14:49:40;27.40;12.10
530;DHT22;251;48.704;9.210;2023-07-29T14:52:07;27.20;11.60
530;DHT22;251;48.704;9.210;2023-07-29T14:54:34;27.10;13.30
530;DHT22;251;48.704;9.210;2023-07-29T14:57:01;27.00;12.00
530;DHT22;251;48.704;9.210;2023-07-29T14:59:27;26.80;12.80
530;DHT22;251;48.704;9.210;2023-07-29T15:01:55;26.90;13.10
530;DHT22;251;48.704;9.210;2023-07-29T15:04:22;26.80;12.00
530;DHT22;251;48.704;9.210;2023-07-29T15:06:49;26.80;13.10
530;DHT22;251;48.704;9.210;2023-07-29T15:09:18;26.70;12.80
530;DHT22;251;48.704;9.210;2023-07-29T15:11:44;26.70;12.90
530;DHT22;251;48.704;9.210;2023-07-29T15:14:11;26.60;13.30
530;DHT22;251;48.704;9.210;2023-07-29T15:16:38;26.40;13.60
530;DHT22;251;48.704;9.210;2023-07-29T15:19:06;26.40;13.50
530;DHT22;251;48.704;9.210;2023-07-29T15:21:33;26.40;14.70
530;DHT22;251;48.704;9.210;2023-07-29T15:24:00;26.30;13.60
530;DHT22;251;48.704;9.210;2023-07-29T15:26:27;26.30;14.00
530;DHT22;251;48.704;9.210;2023-07-29T15:28:54;26.30;14.60
530;DHT22;251;48.704;9.210;2023-07-29T15:31:20;26.30;13.60
530;DHT22;251;48.704;9.210;2023-07-29T15:33:47;26.20;13.80
530;DHT22;251;48.704;9.210;2023-07-29T15:36:16;26.20;14.00
530;DHT22;251;48.704;9.210;2023-07-29T15:38:43;26.30;15.10
530;DHT22;251;48.704;9.210;2023-07-29T15:41:10;26.40;13.90
530;DHT22;251;48.704;9.210;2023-07-29T15:43:37;26.70;13.60
530;DHT22;251;48.704;9.210;2023-07-29T15:46:03;27.10;13.80
530;DHT22;251;48.704;9.210;2023-07-29T15:48:30;27.80;12.50
530;DHT22;251;48.704;9.210;2023-07-29T15:50:57;28.20;11.30
530;DHT22;251;48.704;9.210;2023-07-29T15:53:26;28.60;9.40
530;DHT22;251;48.704;9.210;2023-07-29T15:55:52;28.50;9.90
530;DHT22;251;48.704;9.210;2023-07-29T15:58:19;28.60;9.50
530;DHT22;251;48.704;9.210;2023-07-29T16:00:46;28.80;11.50
530;DHT22;251;48.704;9.210;2023-07-29T16:03:13;28.80;9.60
530;DHT22;251;48.704;9.210;2023-07-29T16:05:39;28.60;9.40
530;DHT22;251;48.704;9.210;2023-07-29T16:08:06;28.70;9.50
530;DHT22;251;48.704;9.210;2023-07-29T16:10:34;28.70;9.40
530;DHT22;251;48.704;9.210;2023-07-29T16:13:01;28.80;9.50
530;DHT22;251;48.704;9.210;2023-07-29T16:15:31;29.00;9.60
530;DHT22;251;48.704;9.210;2023-07-29T16:17:58;29.50;9.90
530;DHT22;251;48.704;9.210;2023-07-29T16:20:25;30.60;10.10
530;DHT22;251;48.704;9.210;2023-07-29T16:22:52;31.30;6.20
530;DHT22;251;48.704;9.210;2023-07-29T16:25:19;31.70;5.80
530;DHT22;251;48.704;9.210;2023-07-29T16:27:47;31.60;5.90
530;DHT22;251;48.704;9.210;2023-07-29T16:30:14;31.90;4.60
530;DHT22;251;48.704;9.210;2023-07-29T16:32:40;32.20;5.20
530;DHT22;251;48.704;9.210;2023-07-29T16:35:08;32.40;3.80
530;DHT22;251;48.704;9.210;2023-07-29T16:37:35;32.10;3.00